createdAt,value
2018-09-18T00:01:05.496Z,99617.33
2018-09-18T00:03:35.513Z,99611.91
2018-09-18T00:06:04.913Z,99609.52
2018-09-18T00:08:34.067Z,99612.60
2018-09-18T00:11:03.395Z,99607.72
2018-09-18T00:13:32.674Z,99602.31
2018-09-18T00:16:01.905Z,99602.10
2018-09-18T00:18:32.092Z,99600.52
2018-09-18T00:21:01.290Z,99600.62
2018-09-18T00:23:30.237Z,99598.22
2018-09-18T00:25:59.611Z,99598.25
2018-09-18T00:28:28.745Z,99591.44
2018-09-18T00:30:57.857Z,99594.23
2018-09-18T00:33:27.831Z,99586.58
2018-09-18T00:35:57.040Z,99586.36
2018-09-18T00:38:26.367Z,99588.31
2018-09-18T00:40:55.481Z,99592.77
2018-09-18T00:43:24.572Z,99585.67
2018-09-18T00:45:54.540Z,99582.66
2018-09-18T00:48:23.797Z,99588.15
2018-09-18T00:50:52.803Z,99586.52
2018-09-18T00:53:24.762Z,99584.88
2018-09-18T00:55:53.939Z,99588.75
2018-09-18T00:58:22.948Z,99590.97
2018-09-18T01:00:51.822Z,99593.44
2018-09-18T01:03:20.895Z,99585.80
2018-09-18T01:05:50.117Z,99586.90
2018-09-18T01:08:19.391Z,99586.63
2018-09-18T01:10:48.606Z,99588.83
2018-09-18T01:13:17.718Z,99594.92
2018-09-18T01:15:46.823Z,99598.48
2018-09-18T01:18:16.079Z,99596.29
2018-09-18T01:20:45.183Z,99590.03
2018-09-18T01:23:14.216Z,99593.56
2018-09-18T01:25:43.605Z,99589.77
2018-09-18T01:28:12.702Z,99591.14
2018-09-18T01:30:41.730Z,99587.04
2018-09-18T01:33:11.454Z,99587.04
2018-09-18T01:35:40.719Z,99578.59
2018-09-18T01:38:10.689Z,99580.55
2018-09-18T01:40:40.242Z,99585.00
2018-09-18T01:43:10.233Z,99580.40
2018-09-18T01:45:39.415Z,99577.13
2018-09-18T01:48:08.417Z,99581.06
2018-09-18T01:50:37.685Z,99575.63
2018-09-18T01:53:07.086Z,99581.69
2018-09-18T01:55:36.112Z,99582.00
2018-09-18T01:58:05.156Z,99583.70
2018-09-18T02:00:34.191Z,99591.39
2018-09-18T02:03:04.320Z,99585.69
2018-09-18T02:05:33.404Z,99590.11
2018-09-18T02:08:02.733Z,99586.02
2018-09-18T02:10:31.907Z,99587.16
2018-09-18T02:13:01.205Z,99587.70
2018-09-18T02:15:30.395Z,99584.42
2018-09-18T02:17:59.519Z,99583.92
2018-09-18T02:20:28.616Z,99591.05
2018-09-18T02:22:57.679Z,99585.33
2018-09-18T02:25:26.752Z,99583.14
2018-09-18T02:27:56.087Z,99583.16
2018-09-18T02:30:25.077Z,99588.92
2018-09-18T02:32:54.434Z,99585.09
2018-09-18T02:35:23.997Z,99585.14
2018-09-18T02:37:53.203Z,99580.48
2018-09-18T02:40:22.469Z,99579.98
2018-09-18T02:42:51.662Z,99580.27
2018-09-18T02:45:21.238Z,99584.15
2018-09-18T02:47:50.851Z,99591.86
2018-09-18T02:50:20.431Z,99582.59
2018-09-18T02:52:50.149Z,99592.47
2018-09-18T02:55:19.242Z,99597.99
2018-09-18T02:57:48.339Z,99597.22
2018-09-18T03:00:17.432Z,99596.94
2018-09-18T03:02:46.734Z,99595.06
2018-09-18T03:05:15.740Z,99596.99
2018-09-18T03:07:45.118Z,99598.13
2018-09-18T03:10:14.459Z,99602.02
2018-09-18T03:12:43.833Z,99597.13
2018-09-18T03:15:12.960Z,99597.45
2018-09-18T03:17:41.911Z,99595.30
2018-09-18T03:20:10.785Z,99604.92
2018-09-18T03:22:40.156Z,99603.83
2018-09-18T03:25:09.337Z,99602.73
2018-09-18T03:27:39.182Z,99607.16
2018-09-18T03:30:08.403Z,99605.79
2018-09-18T03:32:37.558Z,99604.45
2018-09-18T03:35:06.707Z,99603.95
2018-09-18T03:37:35.910Z,99600.94
2018-09-18T03:40:05.660Z,99603.67
2018-09-18T03:42:34.720Z,99601.22
2018-09-18T03:45:04.185Z,99599.02
2018-09-18T03:47:33.324Z,99602.89
2018-09-18T03:50:02.454Z,99601.80
2018-09-18T03:52:31.416Z,99600.47
2018-09-18T03:55:07.747Z,99607.32
2018-09-18T03:57:37.522Z,99611.19
2018-09-18T04:00:06.740Z,99610.36
2018-09-18T04:02:36.191Z,99607.66
2018-09-18T04:05:05.072Z,99605.72
2018-09-18T04:07:34.110Z,99606.30
2018-09-18T04:10:03.199Z,99609.59
2018-09-18T04:12:32.139Z,99605.20
2018-09-18T04:15:01.461Z,99609.86
2018-09-18T04:17:30.919Z,99610.41
2018-09-18T04:20:00.238Z,99616.16
2018-09-18T04:22:29.398Z,99622.22
2018-09-18T04:24:58.533Z,99621.16
2018-09-18T04:27:27.656Z,99620.64
2018-09-18T04:29:56.820Z,99614.94
2018-09-18T04:32:26.113Z,99615.79
2018-09-18T04:34:55.219Z,99623.17
2018-09-18T04:37:24.371Z,99623.21
2018-09-18T04:39:54.097Z,99622.39
2018-09-18T04:42:23.122Z,99624.61
2018-09-18T04:44:52.566Z,99629.81
2018-09-18T04:47:21.699Z,99626.02
2018-09-18T04:49:50.830Z,99626.02
2018-09-18T04:52:19.980Z,99626.56
2018-09-18T04:54:49.278Z,99629.30
2018-09-18T04:57:18.650Z,99629.30
2018-09-18T04:59:47.752Z,99632.27
2018-09-18T05:02:16.827Z,99634.22
2018-09-18T05:04:46.629Z,99637.20
2018-09-18T05:07:15.653Z,99633.92
2018-09-18T05:09:45.218Z,99640.48
2018-09-18T05:12:14.591Z,99638.30
2018-09-18T05:14:43.880Z,99637.47
2018-09-18T05:17:13.452Z,99642.67
2018-09-18T05:19:42.593Z,99650.88
2018-09-18T05:22:11.591Z,99650.61
2018-09-18T05:24:40.601Z,99655.53
2018-09-18T05:27:10.013Z,99657.76
2018-09-18T05:29:39.213Z,99649.55
2018-09-18T05:32:08.372Z,99654.72
2018-09-18T05:34:37.802Z,99660.16
2018-09-18T05:37:07.016Z,99666.94
2018-09-18T05:39:36.000Z,99663.34
2018-09-18T05:42:10.205Z,99661.67
2018-09-18T05:44:39.557Z,99662.77
2018-09-18T05:47:09.709Z,99659.73
2018-09-18T05:49:38.959Z,99658.08
2018-09-18T05:52:08.343Z,99662.43
2018-09-18T05:54:37.493Z,99664.34
2018-09-18T05:57:07.690Z,99658.87
2018-09-18T05:59:36.725Z,99658.59
2018-09-18T06:02:06.223Z,99663.80
2018-09-18T06:04:35.315Z,99662.43
2018-09-18T06:07:04.420Z,99657.50
2018-09-18T06:09:33.694Z,99658.02
2018-09-18T06:12:03.047Z,99656.37
2018-09-18T06:14:32.182Z,99661.30
2018-09-18T06:17:01.480Z,99663.73
2018-09-18T06:19:30.933Z,99666.19
2018-09-18T06:22:00.051Z,99663.97
2018-09-18T06:24:29.330Z,99675.98
2018-09-18T06:26:59.199Z,99672.38
2018-09-18T06:29:31.207Z,99671.25
2018-09-18T06:32:00.624Z,99667.92
2018-09-18T06:34:29.786Z,99671.72
2018-09-18T06:36:58.822Z,99673.33
2018-09-18T06:39:28.043Z,99677.67
2018-09-18T06:41:56.990Z,99670.78
2018-09-18T06:44:25.979Z,99677.83
2018-09-18T06:46:55.008Z,99678.38
2018-09-18T06:49:24.907Z,99676.45
2018-09-18T06:51:53.973Z,99677.00
2018-09-18T06:54:23.102Z,99674.53
2018-09-18T06:56:52.803Z,99670.93
2018-09-18T06:59:22.025Z,99674.19
2018-09-18T07:01:51.425Z,99679.66
2018-09-18T07:04:20.593Z,99674.95
2018-09-18T07:06:49.599Z,99679.84
2018-09-18T07:09:18.910Z,99677.33
2018-09-18T07:11:48.200Z,99680.55
2018-09-18T07:14:17.421Z,99679.13
2018-09-18T07:16:47.267Z,99679.38
2018-09-18T07:19:17.253Z,99679.88
2018-09-18T07:21:46.812Z,99682.03
2018-09-18T07:24:16.016Z,99673.48
2018-09-18T07:26:45.591Z,99671.78
2018-09-18T07:29:14.825Z,99676.08
2018-09-18T07:31:44.071Z,99675.75
2018-09-18T07:34:13.510Z,99683.88
2018-09-18T07:36:43.082Z,99675.55
2018-09-18T07:39:12.842Z,99669.14
2018-09-18T07:41:42.695Z,99673.97
2018-09-18T07:44:11.962Z,99673.56
2018-09-18T07:46:41.560Z,99671.26
2018-09-18T07:49:10.535Z,99672.81
2018-09-18T07:51:39.508Z,99668.58
2018-09-18T07:54:08.788Z,99666.27
2018-09-18T07:56:37.838Z,99668.33
2018-09-18T07:59:07.310Z,99668.70
2018-09-18T08:01:36.659Z,99668.02
2018-09-18T08:04:05.949Z,99665.41
2018-09-18T08:06:35.074Z,99665.50
2018-09-18T08:09:05.812Z,99662.88
2018-09-18T08:11:34.762Z,99670.98
2018-09-18T08:14:03.926Z,99666.66
2018-09-18T08:16:33.262Z,99665.95
2018-09-18T08:19:02.582Z,99672.88
2018-09-18T08:21:31.722Z,99671.36
2018-09-18T08:24:01.333Z,99674.16
2018-09-18T08:26:30.565Z,99673.37
2018-09-18T08:29:00.178Z,99681.41
2018-09-18T08:31:29.513Z,99675.77
2018-09-18T08:33:58.571Z,99673.37
2018-09-18T08:36:27.822Z,99671.27
2018-09-18T08:38:57.630Z,99673.25
2018-09-18T08:41:27.227Z,99676.65
2018-09-18T08:43:56.379Z,99677.55
2018-09-18T08:46:25.726Z,99672.61
2018-09-18T08:48:55.750Z,99672.05
2018-09-18T08:51:25.305Z,99667.69
2018-09-18T08:53:54.677Z,99676.84
2018-09-18T08:56:23.778Z,99666.44
2018-09-18T08:58:52.735Z,99671.67
2018-09-18T09:01:22.175Z,99678.55
2018-09-18T09:03:51.368Z,99673.09
2018-09-18T09:06:20.613Z,99671.77
2018-09-18T09:08:50.458Z,99669.00
2018-09-18T09:11:25.904Z,99665.95
2018-09-18T09:13:55.401Z,99665.42
2018-09-18T09:16:24.563Z,99660.47
2018-09-18T09:18:53.822Z,99661.83
2018-09-18T09:21:23.144Z,99657.69
2018-09-18T09:23:52.446Z,99660.16
2018-09-18T09:26:21.665Z,99661.82
2018-09-18T09:28:50.876Z,99652.42
2018-09-18T09:31:20.856Z,99649.90
2018-09-18T09:33:50.196Z,99659.23
2018-09-18T09:36:19.823Z,99659.81
2018-09-18T09:38:49.049Z,99654.84
2018-09-18T09:41:18.324Z,99646.56
2018-09-18T09:43:47.574Z,99653.44
2018-09-18T09:46:16.863Z,99649.56
2018-09-18T09:48:45.944Z,99644.84
2018-09-18T09:51:15.637Z,99643.35
2018-09-18T09:53:44.920Z,99644.62
2018-09-18T09:56:14.800Z,99647.58
2018-09-18T09:58:43.895Z,99644.79
2018-09-18T10:01:18.026Z,99640.86
2018-09-18T10:03:47.499Z,99644.41
2018-09-18T10:06:16.573Z,99639.73
2018-09-18T10:08:45.828Z,99635.86
2018-09-18T10:11:15.387Z,99638.92
2018-09-18T10:13:44.507Z,99647.28
2018-09-18T10:16:13.725Z,99640.97
2018-09-18T10:18:43.742Z,99640.22
2018-09-18T10:21:12.856Z,99638.18
2018-09-18T10:23:42.003Z,99626.84
2018-09-18T10:26:11.775Z,99628.28
2018-09-18T10:28:41.061Z,99629.44
2018-09-18T10:31:10.207Z,99624.52
2018-09-18T10:33:39.586Z,99636.23
2018-09-18T10:36:08.924Z,99631.27
2018-09-18T10:38:38.111Z,99633.73
2018-09-18T10:41:07.442Z,99631.47
2018-09-18T10:43:36.638Z,99621.45
2018-09-18T10:46:05.908Z,99609.96
2018-09-18T10:48:40.103Z,99622.12
2018-09-18T10:51:09.075Z,99626.31
2018-09-18T10:53:39.514Z,99625.50
2018-09-18T10:56:08.771Z,99616.41
2018-09-18T10:58:37.965Z,99612.81
2018-09-18T11:01:07.353Z,99621.74
2018-09-18T11:03:36.728Z,99609.95
2018-09-18T11:06:06.712Z,99621.98
2018-09-18T11:08:36.415Z,99628.70
2018-09-18T11:11:06.762Z,99617.73
2018-09-18T11:13:36.228Z,99616.46
2018-09-18T11:16:05.737Z,99616.37
2018-09-18T11:18:34.954Z,99610.70
2018-09-18T11:21:04.117Z,99611.75
2018-09-18T11:23:33.452Z,99605.74
2018-09-18T11:26:02.922Z,99612.55
2018-09-18T11:28:31.832Z,99623.44
2018-09-18T11:31:01.375Z,99613.84
2018-09-18T11:33:30.506Z,99608.73
2018-09-18T11:35:59.640Z,99605.87
2018-09-18T11:38:28.799Z,99594.06
2018-09-18T11:40:58.193Z,99597.52
2018-09-18T11:43:27.407Z,99592.32
2018-09-18T11:45:57.232Z,99601.45
2018-09-18T11:48:26.203Z,99615.81
2018-09-18T11:50:55.217Z,99601.31
2018-09-18T11:53:24.332Z,99580.16
2018-09-18T11:55:53.739Z,99596.48
2018-09-18T11:58:22.786Z,99597.50
2018-09-18T12:00:52.086Z,99588.27
2018-09-18T12:03:21.231Z,99586.41
2018-09-18T12:05:50.631Z,99596.57
2018-09-18T12:08:20.022Z,99596.47
2018-09-18T12:10:49.370Z,99589.19
2018-09-18T12:13:18.448Z,99588.85
2018-09-18T12:15:47.634Z,99582.72
2018-09-18T12:18:16.880Z,99589.53
2018-09-18T12:20:46.666Z,99585.61
2018-09-18T12:23:16.493Z,99590.09
2018-09-18T12:25:46.055Z,99591.95
2018-09-18T12:28:15.407Z,99573.52
2018-09-18T12:30:44.567Z,99577.35
2018-09-18T12:33:13.682Z,99579.31
2018-09-18T12:35:42.843Z,99575.96
2018-09-18T12:38:12.226Z,99571.09
2018-09-18T12:40:41.376Z,99567.83
2018-09-18T12:43:10.520Z,99568.17
2018-09-18T12:45:39.823Z,99568.85
2018-09-18T12:48:08.989Z,99569.77
2018-09-18T12:50:38.106Z,99562.23
2018-09-18T12:53:07.590Z,99560.72
2018-09-18T12:55:36.681Z,99569.86
2018-09-18T12:58:06.033Z,99561.77
2018-09-18T13:00:35.340Z,99558.17
2018-09-18T13:03:04.620Z,99543.13
2018-09-18T13:05:33.934Z,99543.80
2018-09-18T13:08:03.176Z,99545.42
2018-09-18T13:10:32.686Z,99540.54
2018-09-18T13:13:01.781Z,99539.25
2018-09-18T13:15:31.261Z,99538.91
2018-09-18T13:18:00.458Z,99539.69
2018-09-18T13:20:29.660Z,99538.77
2018-09-18T13:22:58.617Z,99540.39
2018-09-18T13:25:27.879Z,99524.73
2018-09-18T13:27:57.293Z,99531.94
2018-09-18T13:30:26.614Z,99528.45
2018-09-18T13:32:55.898Z,99516.52
2018-09-18T13:35:25.164Z,99521.73
2018-09-18T13:37:54.419Z,99528.30
2018-09-18T13:40:23.732Z,99515.69
2018-09-18T13:42:52.899Z,99516.50
2018-09-18T13:45:22.055Z,99516.27
2018-09-18T13:47:51.263Z,99528.05
2018-09-18T13:50:20.443Z,99513.23
2018-09-18T13:52:49.854Z,99512.86
2018-09-18T13:55:18.984Z,99513.91
2018-09-18T13:57:49.137Z,99512.52
2018-09-18T14:00:18.109Z,99506.95
2018-09-18T14:02:47.956Z,99518.31
2018-09-18T14:05:17.152Z,99507.30
2018-09-18T14:07:46.143Z,99505.23
2018-09-18T14:10:16.719Z,99504.42
2018-09-18T14:12:45.769Z,99508.59
2018-09-18T14:15:14.922Z,99509.17
2018-09-18T14:17:44.130Z,99510.12
2018-09-18T14:20:13.112Z,99502.02
2018-09-18T14:22:42.777Z,99503.27
2018-09-18T14:25:11.743Z,99509.06
2018-09-18T14:27:40.980Z,99514.25
2018-09-18T14:30:10.097Z,99505.56
2018-09-18T14:32:39.501Z,99512.75
2018-09-18T14:35:08.678Z,99503.59
2018-09-18T14:37:37.740Z,99499.86
2018-09-18T14:40:07.206Z,99500.91
2018-09-18T14:42:36.299Z,99499.95
2018-09-18T14:45:05.866Z,99496.01
2018-09-18T14:47:35.464Z,99499.61
2018-09-18T14:50:05.204Z,99502.38
2018-09-18T14:52:34.258Z,99491.84
2018-09-18T14:55:03.349Z,99501.92
2018-09-18T14:57:32.450Z,99495.34
2018-09-18T15:00:01.998Z,99502.06
2018-09-18T15:02:31.262Z,99500.11
2018-09-18T15:05:00.533Z,99497.23
2018-09-18T15:07:29.874Z,99489.18
2018-09-18T15:09:58.851Z,99496.61
2018-09-18T15:12:27.955Z,99494.29
2018-09-18T15:14:58.404Z,99493.48
2018-09-18T15:17:27.475Z,99503.11
2018-09-18T15:19:57.369Z,99498.03
2018-09-18T15:22:26.292Z,99492.72
2018-09-18T15:24:55.593Z,99500.76
2018-09-18T15:27:24.772Z,99491.85
2018-09-18T15:29:54.152Z,99501.83
2018-09-18T15:32:24.137Z,99496.07
2018-09-18T15:34:54.052Z,99492.17
2018-09-18T15:37:23.462Z,99504.58
2018-09-18T15:39:52.547Z,99496.14
2018-09-18T15:42:22.573Z,99495.02
2018-09-18T15:44:51.661Z,99491.89
2018-09-18T15:47:20.615Z,99495.16
2018-09-18T15:49:50.007Z,99494.03
2018-09-18T15:52:19.244Z,99488.01
2018-09-18T15:54:48.320Z,99489.51
2018-09-18T15:57:17.439Z,99487.20
2018-09-18T15:59:46.608Z,99488.02
2018-09-18T16:02:15.684Z,99483.95
2018-09-18T16:04:44.749Z,99476.31
2018-09-18T16:07:14.131Z,99480.80
2018-09-18T16:09:43.217Z,99478.13
2018-09-18T16:12:12.444Z,99471.17
2018-09-18T16:14:41.770Z,99477.05
2018-09-18T16:17:11.230Z,99476.80
2018-09-18T16:19:40.638Z,99477.37
2018-09-18T16:22:09.641Z,99474.59
2018-09-18T16:24:38.562Z,99480.09
2018-09-18T16:27:07.694Z,99480.09
2018-09-18T16:29:36.910Z,99480.64
2018-09-18T16:32:06.231Z,99494.17
2018-09-18T16:34:35.200Z,99479.26
2018-09-18T16:37:04.188Z,99482.83
2018-09-18T16:39:33.191Z,99483.02
2018-09-18T16:42:02.188Z,99483.81
2018-09-18T16:44:31.440Z,99480.91
2018-09-18T16:47:00.594Z,99478.34
2018-09-18T16:49:29.959Z,99483.25
2018-09-18T16:51:59.415Z,99481.61
2018-09-18T16:54:28.670Z,99487.36
2018-09-18T16:56:57.719Z,99480.73
2018-09-18T16:59:27.013Z,99483.66
2018-09-18T17:01:56.618Z,99488.35
2018-09-18T17:04:26.080Z,99486.91
2018-09-18T17:06:55.487Z,99484.92
2018-09-18T17:09:24.573Z,99487.87
2018-09-18T17:11:53.548Z,99490.03
2018-09-18T17:14:23.119Z,99485.59
2018-09-18T17:16:52.338Z,99487.41
2018-09-18T17:19:21.497Z,99487.58
2018-09-18T17:21:50.871Z,99488.92
2018-09-18T17:24:20.349Z,99492.42
2018-09-18T17:26:49.940Z,99495.90
2018-09-18T17:29:19.224Z,99495.85
2018-09-18T17:31:48.641Z,99496.02
2018-09-18T17:34:17.758Z,99503.70
2018-09-18T17:36:47.283Z,99500.28
2018-09-18T17:39:17.186Z,99506.01
2018-09-18T17:41:46.470Z,99505.86
2018-09-18T17:44:22.218Z,99503.83
2018-09-18T17:46:51.225Z,99501.00
2018-09-18T17:49:20.556Z,99504.17
2018-09-18T17:51:49.800Z,99512.06
2018-09-18T17:54:18.763Z,99515.23
2018-09-18T17:56:48.420Z,99518.97
2018-09-18T17:59:17.699Z,99506.77
2018-09-18T18:01:46.846Z,99512.13
2018-09-18T18:04:16.867Z,99515.55
2018-09-18T18:06:46.219Z,99519.84
2018-09-18T18:09:15.542Z,99520.24
2018-09-18T18:11:44.731Z,99527.55
2018-09-18T18:14:14.289Z,99522.46
2018-09-18T18:16:43.747Z,99520.33
2018-09-18T18:19:12.999Z,99521.32
2018-09-18T18:21:42.547Z,99531.94
2018-09-18T18:24:11.675Z,99525.45
2018-09-18T18:26:41.084Z,99524.47
2018-09-18T18:29:11.274Z,99525.42
2018-09-18T18:31:40.732Z,99521.94
2018-09-18T18:34:10.764Z,99530.30
2018-09-18T18:36:39.894Z,99529.32
2018-09-18T18:39:09.940Z,99524.20
2018-09-18T18:41:39.473Z,99528.98
2018-09-18T18:44:08.865Z,99534.05
2018-09-18T18:46:44.314Z,99540.77
2018-09-18T18:49:13.469Z,99546.91
2018-09-18T18:51:42.981Z,99545.95
2018-09-18T18:54:12.302Z,99547.12
2018-09-18T18:56:41.455Z,99547.77
2018-09-18T18:59:10.731Z,99551.98
2018-09-18T19:01:40.065Z,99552.37
2018-09-18T19:04:09.195Z,99550.27
2018-09-18T19:06:38.183Z,99542.94
2018-09-18T19:09:08.141Z,99545.78
2018-09-18T19:11:37.355Z,99541.70
2018-09-18T19:14:06.667Z,99548.11
2018-09-18T19:16:36.628Z,99547.11
2018-09-18T19:19:06.106Z,99550.99
2018-09-18T19:21:35.877Z,99548.88
2018-09-18T19:24:05.037Z,99551.45
2018-09-18T19:26:34.305Z,99552.09
2018-09-18T19:29:04.209Z,99547.23
2018-09-18T19:31:33.458Z,99555.54
2018-09-18T19:34:02.777Z,99550.92
2018-09-18T19:36:31.993Z,99557.86
2018-09-18T19:39:01.278Z,99558.75
2018-09-18T19:41:30.538Z,99551.14
2018-09-18T19:44:02.868Z,99552.86
2018-09-18T19:46:32.131Z,99558.44
2018-09-18T19:49:01.226Z,99539.92
2018-09-18T19:51:30.383Z,99551.42
2018-09-18T19:53:59.530Z,99552.23
2018-09-18T19:56:29.713Z,99552.88
2018-09-18T19:58:58.663Z,99553.73
2018-09-18T20:01:27.942Z,99549.68
2018-09-18T20:03:57.478Z,99549.75
2018-09-18T20:06:26.913Z,99547.38
2018-09-18T20:08:55.960Z,99547.12
2018-09-18T20:11:24.993Z,99556.02
2018-09-18T20:13:54.132Z,99555.50
2018-09-18T20:16:23.293Z,99553.38
2018-09-18T20:18:52.665Z,99554.83
2018-09-18T20:21:22.083Z,99554.88
2018-09-18T20:23:51.384Z,99558.52
2018-09-18T20:26:21.411Z,99553.64
2018-09-18T20:28:51.130Z,99561.64
2018-09-18T20:31:20.510Z,99559.78
2018-09-18T20:33:49.639Z,99556.51
2018-09-18T20:36:18.918Z,99560.70
2018-09-18T20:38:48.096Z,99556.66
2018-09-18T20:41:17.430Z,99563.83
2018-09-18T20:43:46.569Z,99562.27
2018-09-18T20:46:16.752Z,99551.55
2018-09-18T20:48:46.113Z,99553.56
2018-09-18T20:51:15.332Z,99551.11
2018-09-18T20:53:44.611Z,99560.25
2018-09-18T20:56:13.861Z,99562.48
2018-09-18T20:58:43.026Z,99558.40
2018-09-18T21:01:12.416Z,99554.34
2018-09-18T21:03:41.408Z,99556.57
2018-09-18T21:06:16.981Z,99558.31
2018-09-18T21:08:46.176Z,99554.00
2018-09-18T21:11:15.785Z,99555.44
2018-09-18T21:13:45.281Z,99551.67
2018-09-18T21:16:14.557Z,99549.55
2018-09-18T21:18:43.860Z,99553.16
2018-09-18T21:21:13.396Z,99548.28
2018-09-18T21:23:43.111Z,99554.67
2018-09-18T21:26:15.791Z,99558.60
2018-09-18T21:28:44.798Z,99558.41
2018-09-18T21:31:13.959Z,99557.58
2018-09-18T21:33:43.080Z,99561.52
2018-09-18T21:36:12.590Z,99558.50
2018-09-18T21:38:42.208Z,99560.77
2018-09-18T21:41:11.599Z,99559.42
2018-09-18T21:43:40.810Z,99563.61
2018-09-18T21:46:10.671Z,99556.28
2018-09-18T21:48:40.363Z,99556.83
2018-09-18T21:51:10.294Z,99562.66
2018-09-18T21:53:40.127Z,99558.83
2018-09-18T21:56:09.273Z,99555.59
2018-09-18T21:58:38.379Z,99559.39
2018-09-18T22:01:07.789Z,99559.94
2018-09-18T22:03:37.703Z,99561.64
2018-09-18T22:06:06.874Z,99560.56
2018-09-18T22:08:36.735Z,99561.44
2018-09-18T22:11:06.075Z,99568.61
2018-09-18T22:13:35.224Z,99564.55
2018-09-18T22:16:04.453Z,99556.92
2018-09-18T22:18:33.648Z,99559.96
2018-09-18T22:21:02.843Z,99561.11
2018-09-18T22:23:32.303Z,99563.66
2018-09-18T22:26:01.448Z,99567.25
2018-09-18T22:28:30.544Z,99574.18
2018-09-18T22:30:59.843Z,99571.49
2018-09-18T22:33:29.040Z,99573.98
2018-09-18T22:35:59.508Z,99574.83
2018-09-18T22:38:30.567Z,99574.03
2018-09-18T22:40:59.733Z,99576.81
2018-09-18T22:43:28.959Z,99576.00
2018-09-18T22:45:58.372Z,99571.64
2018-09-18T22:48:27.593Z,99568.37
2018-09-18T22:50:57.799Z,99568.10
2018-09-18T22:53:27.570Z,99569.24
2018-09-18T22:55:56.665Z,99568.16
2018-09-18T22:58:27.102Z,99566.84
2018-09-18T23:00:56.317Z,99563.58
2018-09-18T23:03:25.359Z,99557.03
2018-09-18T23:05:55.111Z,99561.44
2018-09-18T23:08:24.480Z,99563.69
2018-09-18T23:10:54.710Z,99567.28
2018-09-18T23:13:23.851Z,99565.64
2018-09-18T23:15:53.182Z,99567.08
2018-09-18T23:18:22.837Z,99569.00
2018-09-18T23:20:52.196Z,99568.45
2018-09-18T23:23:21.516Z,99568.16
2018-09-18T23:25:51.944Z,99562.41
2018-09-18T23:28:21.067Z,99558.28
2018-09-18T23:30:50.851Z,99554.98
2018-09-18T23:33:20.036Z,99555.80
2018-09-18T23:35:49.401Z,99547.38
2018-09-18T23:38:18.676Z,99558.84
2018-09-18T23:40:49.241Z,99555.59
2018-09-18T23:43:18.435Z,99561.09
2018-09-18T23:45:47.514Z,99554.52
2018-09-18T23:48:16.735Z,99558.63
2018-09-18T23:50:45.712Z,99560.00
2018-09-18T23:53:14.686Z,99563.86
2018-09-18T23:55:44.471Z,99566.37
2018-09-18T23:58:13.439Z,99567.48
